sensor_id;sensor_type;location;lat;lon;timestamp;P1;durP1;ratioP1;P2;durP2;ratioP2
20699;SDS011;10511;51.232;9.420;2023-02-15T00:01:38;1.30;;;1.30;;
20699;SDS011;10511;51.232;9.420;2023-02-15T00:04:05;1.30;;;1.30;;
20699;SDS011;10511;51.232;9.420;2023-02-15T00:06:33;1.30;;;1.30;;
20699;SDS011;10511;51.232;9.420;2023-02-15T00:09:01;1.33;;;1.33;;
20699;SDS011;10511;51.232;9.420;2023-02-15T00:11:28;1.40;;;1.40;;
20699;SDS011;10511;51.232;9.420;2023-02-15T00:14:08;1.30;;;1.30;;
20699;SDS011;10511;51.232;9.420;2023-02-15T00:16:38;1.40;;;1.40;;
20699;SDS011;10511;51.232;9.420;2023-02-15T00:19:06;1.40;;;1.40;;
20699;SDS011;10511;51.232;9.420;2023-02-15T00:21:34;1.30;;;1.30;;
20699;SDS011;10511;51.232;9.420;2023-02-15T00:24:02;1.30;;;1.30;;
20699;SDS011;10511;51.232;9.420;2023-02-15T00:26:30;1.30;;;1.30;;
20699;SDS011;10511;51.232;9.420;2023-02-15T00:28:58;1.30;;;1.30;;
20699;SDS011;10511;51.232;9.420;2023-02-15T00:31:25;1.30;;;1.30;;
20699;SDS011;10511;51.232;9.420;2023-02-15T00:33:54;1.40;;;1.40;;
20699;SDS011;10511;51.232;9.420;2023-02-15T00:36:21;1.30;;;1.30;;
20699;SDS011;10511;51.232;9.420;2023-02-15T00:38:47;1.40;;;1.40;;
20699;SDS011;10511;51.232;9.420;2023-02-15T00:41:14;1.50;;;1.50;;
20699;SDS011;10511;51.232;9.420;2023-02-15T00:43:41;1.50;;;1.50;;
20699;SDS011;10511;51.232;9.420;2023-02-15T00:46:08;1.37;;;1.37;;
20699;SDS011;10511;51.232;9.420;2023-02-15T00:48:35;1.40;;;1.40;;
20699;SDS011;10511;51.232;9.420;2023-02-15T00:51:03;1.43;;;1.43;;
20699;SDS011;10511;51.232;9.420;2023-02-15T00:53:30;1.40;;;1.40;;
20699;SDS011;10511;51.232;9.420;2023-02-15T00:55:57;1.30;;;1.30;;
20699;SDS011;10511;51.232;9.420;2023-02-15T00:58:24;1.40;;;1.40;;
20699;SDS011;10511;51.232;9.420;2023-02-15T01:00:51;1.40;;;1.40;;
20699;SDS011;10511;51.232;9.420;2023-02-15T01:03:19;1.40;;;1.40;;
20699;SDS011;10511;51.232;9.420;2023-02-15T01:05:47;1.40;;;1.40;;
20699;SDS011;10511;51.232;9.420;2023-02-15T01:08:16;1.43;;;1.43;;
20699;SDS011;10511;51.232;9.420;2023-02-15T01:10:43;1.40;;;1.40;;
20699;SDS011;10511;51.232;9.420;2023-02-15T01:13:12;1.37;;;1.37;;
20699;SDS011;10511;51.232;9.420;2023-02-15T01:15:40;1.40;;;1.40;;
20699;SDS011;10511;51.232;9.420;2023-02-15T01:18:07;1.40;;;1.40;;
20699;SDS011;10511;51.232;9.420;2023-02-15T01:20:34;1.60;;;1.60;;
20699;SDS011;10511;51.232;9.420;2023-02-15T01:23:04;1.40;;;1.40;;
20699;SDS011;10511;51.232;9.420;2023-02-15T01:25:34;1.40;;;1.40;;
20699;SDS011;10511;51.232;9.420;2023-02-15T01:28:01;1.40;;;1.40;;
20699;SDS011;10511;51.232;9.420;2023-02-15T01:30:29;1.40;;;1.40;;
20699;SDS011;10511;51.232;9.420;2023-02-15T01:32:56;1.47;;;1.47;;
20699;SDS011;10511;51.232;9.420;2023-02-15T01:35:23;1.40;;;1.40;;
20699;SDS011;10511;51.232;9.420;2023-02-15T01:37:50;1.40;;;1.40;;
20699;SDS011;10511;51.232;9.420;2023-02-15T01:40:17;1.40;;;1.40;;
20699;SDS011;10511;51.232;9.420;2023-02-15T01:42:46;1.50;;;1.50;;
20699;SDS011;10511;51.232;9.420;2023-02-15T01:45:19;1.40;;;1.40;;
20699;SDS011;10511;51.232;9.420;2023-02-15T01:47:49;1.50;;;1.50;;
20699;SDS011;10511;51.232;9.420;2023-02-15T01:50:21;1.40;;;1.40;;
20699;SDS011;10511;51.232;9.420;2023-02-15T01:52:52;1.40;;;1.40;;
20699;SDS011;10511;51.232;9.420;2023-02-15T01:55:23;1.50;;;1.50;;
20699;SDS011;10511;51.232;9.420;2023-02-15T01:57:54;1.60;;;1.60;;
20699;SDS011;10511;51.232;9.420;2023-02-15T02:00:21;1.60;;;1.60;;
20699;SDS011;10511;51.232;9.420;2023-02-15T02:02:49;1.50;;;1.50;;
20699;SDS011;10511;51.232;9.420;2023-02-15T02:05:19;1.60;;;1.60;;
20699;SDS011;10511;51.232;9.420;2023-02-15T02:07:46;1.50;;;1.50;;
20699;SDS011;10511;51.232;9.420;2023-02-15T02:10:17;1.60;;;1.60;;
20699;SDS011;10511;51.232;9.420;2023-02-15T02:12:47;1.50;;;1.50;;
20699;SDS011;10511;51.232;9.420;2023-02-15T02:15:19;1.40;;;1.40;;
20699;SDS011;10511;51.232;9.420;2023-02-15T02:17:53;1.50;;;1.50;;
20699;SDS011;10511;51.232;9.420;2023-02-15T02:20:32;1.60;;;1.60;;
20699;SDS011;10511;51.232;9.420;2023-02-15T02:23:25;1.50;;;1.50;;
20699;SDS011;10511;51.232;9.420;2023-02-15T02:29:16;1.60;;;1.60;;
20699;SDS011;10511;51.232;9.420;2023-02-15T02:32:20;1.60;;;1.60;;
20699;SDS011;10511;51.232;9.420;2023-02-15T02:35:12;1.50;;;1.50;;
20699;SDS011;10511;51.232;9.420;2023-02-15T02:37:46;1.50;;;1.50;;
20699;SDS011;10511;51.232;9.420;2023-02-15T02:40:22;1.50;;;1.50;;
20699;SDS011;10511;51.232;9.420;2023-02-15T02:42:55;1.60;;;1.60;;
20699;SDS011;10511;51.232;9.420;2023-02-15T02:45:28;1.50;;;1.50;;
20699;SDS011;10511;51.232;9.420;2023-02-15T02:47:59;1.50;;;1.50;;
20699;SDS011;10511;51.232;9.420;2023-02-15T02:50:31;1.50;;;1.50;;
20699;SDS011;10511;51.232;9.420;2023-02-15T02:52:58;1.60;;;1.60;;
20699;SDS011;10511;51.232;9.420;2023-02-15T02:55:27;1.67;;;1.67;;
20699;SDS011;10511;51.232;9.420;2023-02-15T02:58:00;1.57;;;1.57;;
20699;SDS011;10511;51.232;9.420;2023-02-15T03:00:31;1.50;;;1.50;;
20699;SDS011;10511;51.232;9.420;2023-02-15T03:03:03;1.50;;;1.50;;
20699;SDS011;10511;51.232;9.420;2023-02-15T03:05:34;1.50;;;1.50;;
20699;SDS011;10511;51.232;9.420;2023-02-15T03:08:06;1.70;;;1.70;;
20699;SDS011;10511;51.232;9.420;2023-02-15T03:10:35;1.70;;;1.70;;
20699;SDS011;10511;51.232;9.420;2023-02-15T03:13:05;1.50;;;1.50;;
20699;SDS011;10511;51.232;9.420;2023-02-15T03:15:33;1.50;;;1.50;;
20699;SDS011;10511;51.232;9.420;2023-02-15T03:18:22;1.50;;;1.50;;
20699;SDS011;10511;51.232;9.420;2023-02-15T03:20:53;1.50;;;1.50;;
20699;SDS011;10511;51.232;9.420;2023-02-15T03:23:23;1.40;;;1.40;;
20699;SDS011;10511;51.232;9.420;2023-02-15T03:25:52;1.50;;;1.50;;
20699;SDS011;10511;51.232;9.420;2023-02-15T03:28:23;1.47;;;1.47;;
20699;SDS011;10511;51.232;9.420;2023-02-15T03:30:55;1.47;;;1.47;;
20699;SDS011;10511;51.232;9.420;2023-02-15T03:33:25;1.47;;;1.47;;
20699;SDS011;10511;51.232;9.420;2023-02-15T03:35:57;1.57;;;1.57;;
20699;SDS011;10511;51.232;9.420;2023-02-15T03:38:32;1.50;;;1.50;;
20699;SDS011;10511;51.232;9.420;2023-02-15T03:41:02;1.50;;;1.50;;
20699;SDS011;10511;51.232;9.420;2023-02-15T03:43:40;1.50;;;1.50;;
20699;SDS011;10511;51.232;9.420;2023-02-15T03:46:15;1.57;;;1.57;;
20699;SDS011;10511;51.232;9.420;2023-02-15T03:48:47;1.50;;;1.50;;
20699;SDS011;10511;51.232;9.420;2023-02-15T03:51:19;1.57;;;1.57;;
20699;SDS011;10511;51.232;9.420;2023-02-15T03:54:02;1.50;;;1.50;;
20699;SDS011;10511;51.232;9.420;2023-02-15T03:56:31;1.50;;;1.50;;
20699;SDS011;10511;51.232;9.420;2023-02-15T03:59:00;1.60;;;1.60;;
20699;SDS011;10511;51.232;9.420;2023-02-15T04:01:47;1.53;;;1.53;;
20699;SDS011;10511;51.232;9.420;2023-02-15T04:04:26;1.50;;;1.50;;
20699;SDS011;10511;51.232;9.420;2023-02-15T04:07:00;1.50;;;1.50;;
20699;SDS011;10511;51.232;9.420;2023-02-15T04:09:28;1.50;;;1.50;;
20699;SDS011;10511;51.232;9.420;2023-02-15T04:12:12;1.50;;;1.50;;
20699;SDS011;10511;51.232;9.420;2023-02-15T04:14:39;1.50;;;1.50;;
20699;SDS011;10511;51.232;9.420;2023-02-15T04:17:23;1.50;;;1.50;;
20699;SDS011;10511;51.232;9.420;2023-02-15T04:19:50;1.43;;;1.43;;
20699;SDS011;10511;51.232;9.420;2023-02-15T04:22:35;1.53;;;1.53;;
20699;SDS011;10511;51.232;9.420;2023-02-15T04:25:20;1.50;;;1.50;;
20699;SDS011;10511;51.232;9.420;2023-02-15T04:27:47;1.60;;;1.60;;
20699;SDS011;10511;51.232;9.420;2023-02-15T04:30:15;1.63;;;1.63;;
20699;SDS011;10511;51.232;9.420;2023-02-15T04:32:44;1.53;;;1.53;;
20699;SDS011;10511;51.232;9.420;2023-02-15T04:35:11;1.50;;;1.50;;
20699;SDS011;10511;51.232;9.420;2023-02-15T04:37:40;1.50;;;1.50;;
20699;SDS011;10511;51.232;9.420;2023-02-15T04:40:08;1.63;;;1.63;;
20699;SDS011;10511;51.232;9.420;2023-02-15T04:42:36;1.60;;;1.60;;
20699;SDS011;10511;51.232;9.420;2023-02-15T04:45:04;1.60;;;1.60;;
20699;SDS011;10511;51.232;9.420;2023-02-15T04:47:31;1.50;;;1.50;;
20699;SDS011;10511;51.232;9.420;2023-02-15T04:49:58;1.47;;;1.47;;
20699;SDS011;10511;51.232;9.420;2023-02-15T04:52:25;1.63;;;1.63;;
20699;SDS011;10511;51.232;9.420;2023-02-15T04:54:53;1.50;;;1.50;;
20699;SDS011;10511;51.232;9.420;2023-02-15T04:57:20;1.60;;;1.60;;
20699;SDS011;10511;51.232;9.420;2023-02-15T04:59:47;1.60;;;1.60;;
20699;SDS011;10511;51.232;9.420;2023-02-15T05:02:14;1.80;;;1.80;;
20699;SDS011;10511;51.232;9.420;2023-02-15T05:04:41;1.70;;;1.70;;
20699;SDS011;10511;51.232;9.420;2023-02-15T05:07:07;1.50;;;1.50;;
20699;SDS011;10511;51.232;9.420;2023-02-15T05:09:34;1.60;;;1.60;;
20699;SDS011;10511;51.232;9.420;2023-02-15T05:12:03;1.60;;;1.60;;
20699;SDS011;10511;51.232;9.420;2023-02-15T05:14:30;1.60;;;1.60;;
20699;SDS011;10511;51.232;9.420;2023-02-15T05:16:56;1.60;;;1.60;;
20699;SDS011;10511;51.232;9.420;2023-02-15T05:19:26;1.50;;;1.50;;
20699;SDS011;10511;51.232;9.420;2023-02-15T05:21:53;1.70;;;1.70;;
20699;SDS011;10511;51.232;9.420;2023-02-15T05:24:20;1.50;;;1.50;;
20699;SDS011;10511;51.232;9.420;2023-02-15T05:27:05;1.60;;;1.60;;
20699;SDS011;10511;51.232;9.420;2023-02-15T05:29:50;1.70;;;1.70;;
20699;SDS011;10511;51.232;9.420;2023-02-15T05:32:17;1.70;;;1.70;;
20699;SDS011;10511;51.232;9.420;2023-02-15T05:34:43;1.60;;;1.60;;
20699;SDS011;10511;51.232;9.420;2023-02-15T05:37:10;1.60;;;1.60;;
20699;SDS011;10511;51.232;9.420;2023-02-15T05:39:37;1.60;;;1.60;;
20699;SDS011;10511;51.232;9.420;2023-02-15T05:42:05;1.60;;;1.60;;
20699;SDS011;10511;51.232;9.420;2023-02-15T05:44:32;1.60;;;1.60;;
20699;SDS011;10511;51.232;9.420;2023-02-15T05:46:59;1.70;;;1.70;;
20699;SDS011;10511;51.232;9.420;2023-02-15T05:49:28;1.63;;;1.63;;
20699;SDS011;10511;51.232;9.420;2023-02-15T05:51:55;1.80;;;1.80;;
20699;SDS011;10511;51.232;9.420;2023-02-15T05:54:22;1.73;;;1.73;;
20699;SDS011;10511;51.232;9.420;2023-02-15T05:56:49;1.60;;;1.60;;
20699;SDS011;10511;51.232;9.420;2023-02-15T05:59:17;1.60;;;1.60;;
20699;SDS011;10511;51.232;9.420;2023-02-15T06:01:44;1.70;;;1.70;;
20699;SDS011;10511;51.232;9.420;2023-02-15T06:04:11;1.80;;;1.80;;
20699;SDS011;10511;51.232;9.420;2023-02-15T06:06:39;1.60;;;1.60;;
20699;SDS011;10511;51.232;9.420;2023-02-15T06:09:05;1.70;;;1.70;;
20699;SDS011;10511;51.232;9.420;2023-02-15T06:11:32;1.60;;;1.60;;
20699;SDS011;10511;51.232;9.420;2023-02-15T06:13:59;1.60;;;1.60;;
20699;SDS011;10511;51.232;9.420;2023-02-15T06:16:27;1.50;;;1.50;;
20699;SDS011;10511;51.232;9.420;2023-02-15T06:18:54;1.50;;;1.50;;
20699;SDS011;10511;51.232;9.420;2023-02-15T06:21:21;1.50;;;1.50;;
20699;SDS011;10511;51.232;9.420;2023-02-15T06:23:48;1.60;;;1.60;;
20699;SDS011;10511;51.232;9.420;2023-02-15T06:26:15;1.70;;;1.70;;
20699;SDS011;10511;51.232;9.420;2023-02-15T06:28:42;1.80;;;1.80;;
20699;SDS011;10511;51.232;9.420;2023-02-15T06:31:08;1.70;;;1.70;;
20699;SDS011;10511;51.232;9.420;2023-02-15T06:33:36;1.70;;;1.70;;
20699;SDS011;10511;51.232;9.420;2023-02-15T06:36:04;1.60;;;1.60;;
20699;SDS011;10511;51.232;9.420;2023-02-15T06:38:31;1.60;;;1.60;;
20699;SDS011;10511;51.232;9.420;2023-02-15T06:40:58;1.60;;;1.60;;
20699;SDS011;10511;51.232;9.420;2023-02-15T06:43:25;1.50;;;1.50;;
20699;SDS011;10511;51.232;9.420;2023-02-15T06:45:52;1.70;;;1.70;;
20699;SDS011;10511;51.232;9.420;2023-02-15T06:48:18;1.67;;;1.67;;
20699;SDS011;10511;51.232;9.420;2023-02-15T06:50:47;1.70;;;1.70;;
20699;SDS011;10511;51.232;9.420;2023-02-15T06:53:14;1.63;;;1.63;;
20699;SDS011;10511;51.232;9.420;2023-02-15T06:55:41;1.50;;;1.50;;
20699;SDS011;10511;51.232;9.420;2023-02-15T06:58:07;1.67;;;1.67;;
20699;SDS011;10511;51.232;9.420;2023-02-15T07:00:35;1.60;;;1.60;;
20699;SDS011;10511;51.232;9.420;2023-02-15T07:03:01;1.60;;;1.60;;
20699;SDS011;10511;51.232;9.420;2023-02-15T07:05:28;1.60;;;1.60;;
20699;SDS011;10511;51.232;9.420;2023-02-15T07:08:00;1.60;;;1.60;;
20699;SDS011;10511;51.232;9.420;2023-02-15T07:10:27;1.60;;;1.60;;
20699;SDS011;10511;51.232;9.420;2023-02-15T07:12:54;1.60;;;1.60;;
20699;SDS011;10511;51.232;9.420;2023-02-15T07:15:20;1.60;;;1.60;;
20699;SDS011;10511;51.232;9.420;2023-02-15T07:17:47;1.60;;;1.60;;
20699;SDS011;10511;51.232;9.420;2023-02-15T07:20:15;1.70;;;1.70;;
20699;SDS011;10511;51.232;9.420;2023-02-15T07:22:43;1.67;;;1.67;;
20699;SDS011;10511;51.232;9.420;2023-02-15T07:25:12;1.60;;;1.60;;
20699;SDS011;10511;51.232;9.420;2023-02-15T07:27:39;1.60;;;1.60;;
20699;SDS011;10511;51.232;9.420;2023-02-15T07:30:07;1.60;;;1.60;;
20699;SDS011;10511;51.232;9.420;2023-02-15T07:32:35;1.60;;;1.60;;
20699;SDS011;10511;51.232;9.420;2023-02-15T07:35:22;1.60;;;1.60;;
20699;SDS011;10511;51.232;9.420;2023-02-15T07:37:49;1.50;;;1.50;;
20699;SDS011;10511;51.232;9.420;2023-02-15T07:40:17;1.67;;;1.67;;
20699;SDS011;10511;51.232;9.420;2023-02-15T07:42:44;1.50;;;1.50;;
20699;SDS011;10511;51.232;9.420;2023-02-15T07:45:10;1.63;;;1.63;;
20699;SDS011;10511;51.232;9.420;2023-02-15T07:47:37;1.60;;;1.60;;
20699;SDS011;10511;51.232;9.420;2023-02-15T07:50:05;1.70;;;1.70;;
20699;SDS011;10511;51.232;9.420;2023-02-15T07:52:32;1.87;;;1.87;;
20699;SDS011;10511;51.232;9.420;2023-02-15T07:54:59;1.60;;;1.60;;
20699;SDS011;10511;51.232;9.420;2023-02-15T07:57:27;1.53;;;1.53;;
20699;SDS011;10511;51.232;9.420;2023-02-15T07:59:54;1.67;;;1.67;;
20699;SDS011;10511;51.232;9.420;2023-02-15T08:02:21;1.70;;;1.70;;
20699;SDS011;10511;51.232;9.420;2023-02-15T08:04:48;1.60;;;1.60;;
20699;SDS011;10511;51.232;9.420;2023-02-15T08:07:15;1.60;;;1.60;;
20699;SDS011;10511;51.232;9.420;2023-02-15T08:09:42;1.60;;;1.60;;
20699;SDS011;10511;51.232;9.420;2023-02-15T08:12:08;1.70;;;1.70;;
20699;SDS011;10511;51.232;9.420;2023-02-15T08:14:37;1.70;;;1.70;;
20699;SDS011;10511;51.232;9.420;2023-02-15T08:17:03;1.60;;;1.60;;
20699;SDS011;10511;51.232;9.420;2023-02-15T08:19:31;1.60;;;1.60;;
20699;SDS011;10511;51.232;9.420;2023-02-15T08:22:00;1.70;;;1.70;;
20699;SDS011;10511;51.232;9.420;2023-02-15T08:24:28;1.80;;;1.80;;
20699;SDS011;10511;51.232;9.420;2023-02-15T08:26:56;1.60;;;1.60;;
20699;SDS011;10511;51.232;9.420;2023-02-15T08:29:25;1.60;;;1.60;;
20699;SDS011;10511;51.232;9.420;2023-02-15T08:31:54;1.60;;;1.60;;
20699;SDS011;10511;51.232;9.420;2023-02-15T08:34:23;1.70;;;1.70;;
20699;SDS011;10511;51.232;9.420;2023-02-15T08:36:50;1.60;;;1.60;;
20699;SDS011;10511;51.232;9.420;2023-02-15T08:39:17;1.70;;;1.70;;
20699;SDS011;10511;51.232;9.420;2023-02-15T08:41:45;1.50;;;1.50;;
20699;SDS011;10511;51.232;9.420;2023-02-15T08:44:14;1.60;;;1.60;;
20699;SDS011;10511;51.232;9.420;2023-02-15T08:46:42;1.70;;;1.70;;
20699;SDS011;10511;51.232;9.420;2023-02-15T08:49:12;1.60;;;1.60;;
20699;SDS011;10511;51.232;9.420;2023-02-15T08:51:41;1.57;;;1.57;;
20699;SDS011;10511;51.232;9.420;2023-02-15T08:54:09;1.60;;;1.60;;
20699;SDS011;10511;51.232;9.420;2023-02-15T08:56:39;1.60;;;1.60;;
20699;SDS011;10511;51.232;9.420;2023-02-15T08:59:10;1.70;;;1.70;;
20699;SDS011;10511;51.232;9.420;2023-02-15T09:01:38;1.60;;;1.60;;
20699;SDS011;10511;51.232;9.420;2023-02-15T09:04:06;1.50;;;1.50;;
20699;SDS011;10511;51.232;9.420;2023-02-15T09:06:36;1.60;;;1.60;;
20699;SDS011;10511;51.232;9.420;2023-02-15T09:09:04;1.60;;;1.60;;
20699;SDS011;10511;51.232;9.420;2023-02-15T09:11:33;1.53;;;1.53;;
20699;SDS011;10511;51.232;9.420;2023-02-15T09:14:03;1.60;;;1.60;;
20699;SDS011;10511;51.232;9.420;2023-02-15T09:16:32;1.60;;;1.60;;
20699;SDS011;10511;51.232;9.420;2023-02-15T09:19:00;1.60;;;1.60;;
20699;SDS011;10511;51.232;9.420;2023-02-15T09:21:27;1.60;;;1.60;;
20699;SDS011;10511;51.232;9.420;2023-02-15T09:23:57;1.60;;;1.60;;
20699;SDS011;10511;51.232;9.420;2023-02-15T09:26:26;1.60;;;1.60;;
20699;SDS011;10511;51.232;9.420;2023-02-15T09:28:55;1.50;;;1.50;;
20699;SDS011;10511;51.232;9.420;2023-02-15T09:31:24;1.50;;;1.50;;
20699;SDS011;10511;51.232;9.420;2023-02-15T09:33:52;1.50;;;1.50;;
20699;SDS011;10511;51.232;9.420;2023-02-15T09:36:20;1.60;;;1.60;;
20699;SDS011;10511;51.232;9.420;2023-02-15T09:38:52;1.60;;;1.60;;
20699;SDS011;10511;51.232;9.420;2023-02-15T09:41:36;1.67;;;1.67;;
20699;SDS011;10511;51.232;9.420;2023-02-15T09:44:22;1.60;;;1.60;;
20699;SDS011;10511;51.232;9.420;2023-02-15T09:47:12;1.60;;;1.60;;
20699;SDS011;10511;51.232;9.420;2023-02-15T09:49:52;1.70;;;1.70;;
20699;SDS011;10511;51.232;9.420;2023-02-15T09:52:28;1.63;;;1.63;;
20699;SDS011;10511;51.232;9.420;2023-02-15T09:55:13;1.60;;;1.60;;
20699;SDS011;10511;51.232;9.420;2023-02-15T09:58:04;1.50;;;1.50;;
20699;SDS011;10511;51.232;9.420;2023-02-15T10:00:40;1.50;;;1.50;;
20699;SDS011;10511;51.232;9.420;2023-02-15T10:03:21;1.50;;;1.50;;
20699;SDS011;10511;51.232;9.420;2023-02-15T10:06:03;1.40;;;1.40;;
20699;SDS011;10511;51.232;9.420;2023-02-15T10:08:53;1.50;;;1.50;;
20699;SDS011;10511;51.232;9.420;2023-02-15T10:11:40;1.50;;;1.50;;
20699;SDS011;10511;51.232;9.420;2023-02-15T10:17:12;1.50;;;1.50;;
20699;SDS011;10511;51.232;9.420;2023-02-15T10:19:54;1.60;;;1.60;;
20699;SDS011;10511;51.232;9.420;2023-02-15T10:22:33;1.50;;;1.50;;
20699;SDS011;10511;51.232;9.420;2023-02-15T10:25:11;1.60;;;1.60;;
20699;SDS011;10511;51.232;9.420;2023-02-15T10:27:51;1.60;;;1.60;;
20699;SDS011;10511;51.232;9.420;2023-02-15T10:30:20;1.50;;;1.50;;
20699;SDS011;10511;51.232;9.420;2023-02-15T10:32:55;1.70;;;1.70;;
20699;SDS011;10511;51.232;9.420;2023-02-15T10:35:27;1.60;;;1.60;;
20699;SDS011;10511;51.232;9.420;2023-02-15T10:38:03;1.70;;;1.70;;
20699;SDS011;10511;51.232;9.420;2023-02-15T10:40:39;1.60;;;1.60;;
20699;SDS011;10511;51.232;9.420;2023-02-15T10:43:20;1.50;;;1.50;;
20699;SDS011;10511;51.232;9.420;2023-02-15T10:46:00;1.50;;;1.50;;
20699;SDS011;10511;51.232;9.420;2023-02-15T10:48:39;1.50;;;1.50;;
20699;SDS011;10511;51.232;9.420;2023-02-15T10:51:34;1.50;;;1.50;;
20699;SDS011;10511;51.232;9.420;2023-02-15T10:54:09;1.40;;;1.40;;
20699;SDS011;10511;51.232;9.420;2023-02-15T10:56:53;1.40;;;1.40;;
20699;SDS011;10511;51.232;9.420;2023-02-15T10:59:42;1.50;;;1.50;;
20699;SDS011;10511;51.232;9.420;2023-02-15T11:02:27;1.40;;;1.40;;
20699;SDS011;10511;51.232;9.420;2023-02-15T11:05:16;1.50;;;1.50;;
20699;SDS011;10511;51.232;9.420;2023-02-15T11:07:52;1.60;;;1.60;;
20699;SDS011;10511;51.232;9.420;2023-02-15T11:10:24;1.53;;;1.53;;
20699;SDS011;10511;51.232;9.420;2023-02-15T11:12:56;1.40;;;1.40;;
20699;SDS011;10511;51.232;9.420;2023-02-15T11:15:29;1.50;;;1.50;;
20699;SDS011;10511;51.232;9.420;2023-02-15T11:18:02;1.40;;;1.40;;
20699;SDS011;10511;51.232;9.420;2023-02-15T11:20:35;1.50;;;1.50;;
20699;SDS011;10511;51.232;9.420;2023-02-15T11:23:09;1.47;;;1.47;;
20699;SDS011;10511;51.232;9.420;2023-02-15T11:25:41;1.40;;;1.40;;
20699;SDS011;10511;51.232;9.420;2023-02-15T11:28:13;1.50;;;1.50;;
20699;SDS011;10511;51.232;9.420;2023-02-15T11:30:47;1.60;;;1.60;;
20699;SDS011;10511;51.232;9.420;2023-02-15T11:33:20;1.50;;;1.50;;
20699;SDS011;10511;51.232;9.420;2023-02-15T11:35:51;1.50;;;1.50;;
20699;SDS011;10511;51.232;9.420;2023-02-15T11:38:22;1.47;;;1.47;;
20699;SDS011;10511;51.232;9.420;2023-02-15T11:40:54;1.40;;;1.40;;
20699;SDS011;10511;51.232;9.420;2023-02-15T11:43:24;1.40;;;1.40;;
20699;SDS011;10511;51.232;9.420;2023-02-15T11:45:56;1.40;;;1.40;;
20699;SDS011;10511;51.232;9.420;2023-02-15T11:48:24;1.50;;;1.50;;
20699;SDS011;10511;51.232;9.420;2023-02-15T11:50:51;1.40;;;1.40;;
20699;SDS011;10511;51.232;9.420;2023-02-15T11:53:19;1.50;;;1.50;;
20699;SDS011;10511;51.232;9.420;2023-02-15T11:55:49;1.40;;;1.40;;
20699;SDS011;10511;51.232;9.420;2023-02-15T11:58:22;1.50;;;1.50;;
20699;SDS011;10511;51.232;9.420;2023-02-15T12:00:55;1.47;;;1.47;;
20699;SDS011;10511;51.232;9.420;2023-02-15T12:03:29;1.40;;;1.40;;
20699;SDS011;10511;51.232;9.420;2023-02-15T12:06:05;1.40;;;1.40;;
20699;SDS011;10511;51.232;9.420;2023-02-15T12:08:42;1.40;;;1.40;;
20699;SDS011;10511;51.232;9.420;2023-02-15T12:11:15;1.40;;;1.40;;
20699;SDS011;10511;51.232;9.420;2023-02-15T12:13:53;1.40;;;1.40;;
20699;SDS011;10511;51.232;9.420;2023-02-15T12:16:22;1.30;;;1.30;;
20699;SDS011;10511;51.232;9.420;2023-02-15T12:18:50;1.40;;;1.40;;
20699;SDS011;10511;51.232;9.420;2023-02-15T12:21:25;1.40;;;1.40;;
20699;SDS011;10511;51.232;9.420;2023-02-15T12:23:55;1.40;;;1.40;;
20699;SDS011;10511;51.232;9.420;2023-02-15T12:26:25;1.50;;;1.50;;
20699;SDS011;10511;51.232;9.420;2023-02-15T12:28:53;1.40;;;1.40;;
20699;SDS011;10511;51.232;9.420;2023-02-15T12:31:23;1.50;;;1.50;;
20699;SDS011;10511;51.232;9.420;2023-02-15T12:33:55;1.40;;;1.40;;
20699;SDS011;10511;51.232;9.420;2023-02-15T12:36:24;1.40;;;1.40;;
20699;SDS011;10511;51.232;9.420;2023-02-15T12:39:16;1.40;;;1.40;;
20699;SDS011;10511;51.232;9.420;2023-02-15T12:41:46;1.50;;;1.50;;
20699;SDS011;10511;51.232;9.420;2023-02-15T12:44:24;1.40;;;1.40;;
20699;SDS011;10511;51.232;9.420;2023-02-15T12:46:58;1.40;;;1.40;;
20699;SDS011;10511;51.232;9.420;2023-02-15T12:49:29;1.40;;;1.40;;
20699;SDS011;10511;51.232;9.420;2023-02-15T12:51:58;1.40;;;1.40;;
20699;SDS011;10511;51.232;9.420;2023-02-15T12:54:28;1.47;;;1.47;;
20699;SDS011;10511;51.232;9.420;2023-02-15T12:56:59;1.50;;;1.50;;
20699;SDS011;10511;51.232;9.420;2023-02-15T12:59:47;1.40;;;1.40;;
20699;SDS011;10511;51.232;9.420;2023-02-15T13:02:16;1.40;;;1.40;;
20699;SDS011;10511;51.232;9.420;2023-02-15T13:04:49;1.40;;;1.40;;
20699;SDS011;10511;51.232;9.420;2023-02-15T13:07:17;1.40;;;1.40;;
20699;SDS011;10511;51.232;9.420;2023-02-15T13:09:44;1.40;;;1.40;;
20699;SDS011;10511;51.232;9.420;2023-02-15T13:12:15;1.50;;;1.50;;
20699;SDS011;10511;51.232;9.420;2023-02-15T13:14:45;1.40;;;1.40;;
20699;SDS011;10511;51.232;9.420;2023-02-15T13:17:15;1.50;;;1.50;;
20699;SDS011;10511;51.232;9.420;2023-02-15T13:19:44;1.40;;;1.40;;
20699;SDS011;10511;51.232;9.420;2023-02-15T13:22:16;1.40;;;1.40;;
20699;SDS011;10511;51.232;9.420;2023-02-15T13:24:46;1.30;;;1.30;;
20699;SDS011;10511;51.232;9.420;2023-02-15T13:27:16;1.30;;;1.30;;
20699;SDS011;10511;51.232;9.420;2023-02-15T13:29:46;1.30;;;1.30;;
20699;SDS011;10511;51.232;9.420;2023-02-15T13:32:21;1.30;;;1.30;;
20699;SDS011;10511;51.232;9.420;2023-02-15T13:34:52;1.37;;;1.37;;
20699;SDS011;10511;51.232;9.420;2023-02-15T13:37:33;1.40;;;1.40;;
20699;SDS011;10511;51.232;9.420;2023-02-15T13:40:12;1.40;;;1.40;;
20699;SDS011;10511;51.232;9.420;2023-02-15T13:42:42;1.40;;;1.40;;
20699;SDS011;10511;51.232;9.420;2023-02-15T13:45:19;1.30;;;1.30;;
20699;SDS011;10511;51.232;9.420;2023-02-15T13:47:57;1.30;;;1.30;;
20699;SDS011;10511;51.232;9.420;2023-02-15T13:50:33;1.50;;;1.50;;
20699;SDS011;10511;51.232;9.420;2023-02-15T13:53:16;1.40;;;1.40;;
20699;SDS011;10511;51.232;9.420;2023-02-15T13:55:56;1.30;;;1.30;;
20699;SDS011;10511;51.232;9.420;2023-02-15T13:58:39;1.30;;;1.30;;
20699;SDS011;10511;51.232;9.420;2023-02-15T14:01:22;1.37;;;1.37;;
20699;SDS011;10511;51.232;9.420;2023-02-15T14:04:10;1.40;;;1.40;;
20699;SDS011;10511;51.232;9.420;2023-02-15T14:07:13;1.30;;;1.30;;
20699;SDS011;10511;51.232;9.420;2023-02-15T14:09:58;1.40;;;1.40;;
20699;SDS011;10511;51.232;9.420;2023-02-15T14:12:53;1.40;;;1.40;;
20699;SDS011;10511;51.232;9.420;2023-02-15T14:15:41;1.30;;;1.30;;
20699;SDS011;10511;51.232;9.420;2023-02-15T14:18:16;1.40;;;1.40;;
20699;SDS011;10511;51.232;9.420;2023-02-15T14:20:51;1.40;;;1.40;;
20699;SDS011;10511;51.232;9.420;2023-02-15T14:23:32;1.40;;;1.40;;
20699;SDS011;10511;51.232;9.420;2023-02-15T14:26:11;1.30;;;1.30;;
20699;SDS011;10511;51.232;9.420;2023-02-15T14:28:43;1.30;;;1.30;;
20699;SDS011;10511;51.232;9.420;2023-02-15T14:31:15;1.30;;;1.30;;
20699;SDS011;10511;51.232;9.420;2023-02-15T14:33:50;1.40;;;1.40;;
20699;SDS011;10511;51.232;9.420;2023-02-15T14:36:21;1.30;;;1.30;;
20699;SDS011;10511;51.232;9.420;2023-02-15T14:39:00;1.30;;;1.30;;
20699;SDS011;10511;51.232;9.420;2023-02-15T14:41:59;1.30;;;1.30;;
20699;SDS011;10511;51.232;9.420;2023-02-15T14:44:33;1.30;;;1.30;;
20699;SDS011;10511;51.232;9.420;2023-02-15T14:47:04;1.30;;;1.30;;
20699;SDS011;10511;51.232;9.420;2023-02-15T14:49:36;1.27;;;1.27;;
20699;SDS011;10511;51.232;9.420;2023-02-15T14:52:05;1.30;;;1.30;;
20699;SDS011;10511;51.232;9.420;2023-02-15T14:57:22;1.30;;;1.30;;
20699;SDS011;10511;51.232;9.420;2023-02-15T14:59:52;1.30;;;1.30;;
20699;SDS011;10511;51.232;9.420;2023-02-15T15:02:23;1.30;;;1.30;;
20699;SDS011;10511;51.232;9.420;2023-02-15T15:04:55;1.40;;;1.40;;
20699;SDS011;10511;51.232;9.420;2023-02-15T15:07:26;1.37;;;1.37;;
20699;SDS011;10511;51.232;9.420;2023-02-15T15:10:02;1.30;;;1.30;;
20699;SDS011;10511;51.232;9.420;2023-02-15T15:12:42;1.40;;;1.40;;
20699;SDS011;10511;51.232;9.420;2023-02-15T15:15:13;1.40;;;1.40;;
20699;SDS011;10511;51.232;9.420;2023-02-15T15:17:59;1.30;;;1.30;;
20699;SDS011;10511;51.232;9.420;2023-02-15T15:20:40;1.33;;;1.33;;
20699;SDS011;10511;51.232;9.420;2023-02-15T15:28:55;1.40;;;1.40;;
20699;SDS011;10511;51.232;9.420;2023-02-15T15:31:24;1.40;;;1.40;;